Time;durP1;ratioP1;P1;durP2;ratioP2;P2;SDS_P1;SDS_P2;PMS_P1;PMS_P2;Temp;Humidity;BMP_temperature;BMP_pressure;BME280_temperature;BME280_humidity;BME280_pressure;Samples;Min_cycle;Max_cycle;Signal;HPM_P1;HPM_P2
2023/05/28 00:00:12;;;;;;;7.50;2.60;;;8.90;1.00;;;;;;4361380;28;654922;-73
2023/05/28 00:03:00;;;;;;;5.77;3.10;;;8.80;1.00;;;;;;4392805;27;655164;-73
2023/05/28 00:05:47;;;;;;;10.13;3.07;;;8.80;1.00;;;;;;4363269;28;655466;-73
2023/05/28 00:08:35;;;;;;;5.17;2.77;;;8.80;1.00;;;;;;4376150;27;655588;-73
2023/05/28 00:11:23;;;;;;;11.13;3.00;;;8.80;1.00;;;;;;4385487;28;655389;-73
2023/05/28 00:14:10;;;;;;;6.37;3.03;;;8.70;1.00;;;;;;4364798;28;655130;-73
2023/05/28 00:16:58;;;;;;;6.90;2.83;;;8.70;1.00;;;;;;4382812;28;655515;-74
2023/05/28 00:19:47;;;;;;;13.67;2.93;;;8.60;1.00;;;;;;4340269;28;654461;-72
2023/05/28 00:22:35;;;;;;;8.07;2.70;;;8.60;1.00;;;;;;4336384;27;654957;-72
2023/05/28 00:25:22;;;;;;;7.13;2.63;;;8.60;1.00;;;;;;4357933;27;654454;-73
2023/05/28 00:28:09;;;;;;;7.07;2.60;;;8.50;1.00;;;;;;4380960;28;654136;-73
2023/05/28 00:30:56;;;;;;;5.77;2.50;;;8.50;1.00;;;;;;4386050;27;654640;-73
2023/05/28 00:33:44;;;;;;;5.50;2.50;;;8.50;1.00;;;;;;4385745;28;655251;-73
2023/05/28 00:36:33;;;;;;;8.50;2.40;;;8.50;1.00;;;;;;4381973;27;654418;-73
2023/05/28 00:39:20;;;;;;;7.97;2.40;;;8.50;1.00;;;;;;4377627;27;655302;-72
2023/05/28 00:42:10;;;;;;;6.87;2.30;;;8.40;1.00;;;;;;4390913;27;655921;-73
2023/05/28 00:44:57;;;;;;;6.73;2.47;;;8.40;1.00;;;;;;4367120;27;654466;-74
2023/05/28 00:47:44;;;;;;;8.17;3.33;;;8.30;1.00;;;;;;4388789;27;654497;-73
2023/05/28 00:50:32;;;;;;;6.27;2.53;;;8.30;1.00;;;;;;4371196;27;654242;-73
2023/05/28 00:53:21;;;;;;;6.93;2.20;;;8.30;1.00;;;;;;4387574;27;655036;-73
2023/05/28 00:56:08;;;;;;;7.63;2.23;;;8.20;1.00;;;;;;4369580;27;655598;-73
2023/05/28 00:58:55;;;;;;;7.20;2.10;;;8.20;1.00;;;;;;4365059;27;654493;-72
2023/05/28 01:01:43;;;;;;;4.87;2.60;;;8.20;1.00;;;;;;4389115;27;655632;-72
2023/05/28 01:04:32;;;;;;;8.30;2.40;;;8.20;1.00;;;;;;4366528;28;654639;-72
2023/05/28 01:07:19;;;;;;;5.40;2.10;;;8.10;1.00;;;;;;4407072;27;654442;-73
2023/05/28 01:10:08;;;;;;;6.13;2.57;;;8.10;1.00;;;;;;4387018;27;654436;-74
2023/05/28 01:12:56;;;;;;;7.18;2.22;;;8.00;1.00;;;;;;4378825;27;654464;-73
2023/05/28 01:15:43;;;;;;;8.90;2.17;;;7.90;1.00;;;;;;4376862;28;655144;-73
2023/05/28 01:18:31;;;;;;;6.27;2.43;;;7.90;1.00;;;;;;4356833;28;655252;-72
2023/05/28 01:21:18;;;;;;;11.30;1.93;;;7.90;1.00;;;;;;4402042;27;654584;-73
2023/05/28 01:24:07;;;;;;;3.17;1.80;;;7.90;1.00;;;;;;4358922;28;655433;-73
2023/05/28 01:26:55;;;;;;;7.50;2.10;;;7.80;1.00;;;;;;4385457;27;655198;-73
2023/05/28 01:29:42;;;;;;;8.63;2.30;;;7.80;1.00;;;;;;4354353;28;655892;-73
2023/05/28 01:32:29;;;;;;;4.77;2.13;;;7.80;1.00;;;;;;4388026;27;654770;-74
2023/05/28 01:35:16;;;;;;;4.97;2.07;;;7.80;1.00;;;;;;4362781;27;654763;-74
2023/05/28 01:38:04;;;;;;;8.10;2.37;;;7.80;1.00;;;;;;4402740;28;655799;-74
2023/05/28 01:40:54;;;;;;;5.25;2.08;;;7.70;1.00;;;;;;4363130;28;654587;-74
2023/05/28 01:43:41;;;;;;;6.07;2.00;;;7.70;1.00;;;;;;4368440;28;655368;-74
2023/05/28 01:46:28;;;;;;;4.23;2.27;;;7.70;1.00;;;;;;4385525;28;655911;-75
2023/05/28 01:49:15;;;;;;;5.20;2.10;;;7.70;1.00;;;;;;4362558;28;654554;-73
2023/05/28 01:52:03;;;;;;;4.17;1.83;;;7.70;1.00;;;;;;4378424;27;655909;-75
2023/05/28 01:54:50;;;;;;;7.28;1.92;;;7.70;1.00;;;;;;4377134;27;655641;-74
2023/05/28 01:57:39;;;;;;;5.37;2.30;;;7.70;1.00;;;;;;4387348;28;654446;-74
2023/05/28 02:00:26;;;;;;;4.03;1.77;;;7.60;1.00;;;;;;4397370;27;655018;-74
2023/05/28 02:03:13;;;;;;;6.33;2.00;;;7.50;1.00;;;;;;4401406;27;654868;-74
2023/05/28 02:06:01;;;;;;;4.27;1.80;;;7.50;1.00;;;;;;4361302;28;654837;-75
2023/05/28 02:08:48;;;;;;;6.27;2.17;;;7.50;1.00;;;;;;4381867;28;654806;-74
2023/05/28 02:11:35;;;;;;;4.28;2.00;;;7.50;1.00;;;;;;4383259;27;654734;-74
2023/05/28 02:14:24;;;;;;;4.57;1.80;;;7.50;1.00;;;;;;4381919;28;655890;-74
2023/05/28 02:17:12;;;;;;;3.63;1.53;;;7.50;1.00;;;;;;4361274;28;655488;-74
2023/05/28 02:19:59;;;;;;;4.90;1.90;;;7.50;1.00;;;;;;4319998;27;655265;-74
2023/05/28 02:22:46;;;;;;;5.83;1.83;;;7.50;1.00;;;;;;4285289;27;654969;-73
2023/05/28 02:25:34;;;;;;;5.70;1.93;;;7.40;1.00;;;;;;4270298;27;654568;-73
2023/05/28 02:28:21;;;;;;;5.77;1.97;;;7.50;1.00;;;;;;4284410;28;654673;-74
2023/05/28 02:31:10;;;;;;;8.53;2.10;;;7.40;1.00;;;;;;4435303;27;654641;-74
2023/05/28 02:33:57;;;;;;;4.43;1.67;;;7.40;1.00;;;;;;4375065;28;654832;-74
2023/05/28 02:36:44;;;;;;;7.67;1.80;;;7.40;1.00;;;;;;4378075;28;654858;-74
2023/05/28 02:39:32;;;;;;;3.93;1.77;;;7.40;1.00;;;;;;4355497;28;654801;-74
2023/05/28 02:42:19;;;;;;;5.20;1.80;;;7.40;1.00;;;;;;4402734;28;654540;-74
2023/05/28 02:45:07;;;;;;;8.10;2.10;;;7.40;1.00;;;;;;4367529;27;654549;-74
2023/05/28 02:47:56;;;;;;;4.15;1.90;;;7.40;1.00;;;;;;4399422;27;654312;-74
2023/05/28 02:50:43;;;;;;;5.87;2.60;;;7.40;1.00;;;;;;4358768;28;655208;-74
2023/05/28 02:53:31;;;;;;;7.35;2.20;;;7.40;1.00;;;;;;4369014;28;654823;-74
2023/05/28 02:56:18;;;;;;;5.80;2.13;;;7.40;1.00;;;;;;4383331;27;654475;-74
2023/05/28 02:59:05;;;;;;;6.47;2.27;;;7.40;1.00;;;;;;4365420;27;654118;-73
2023/05/28 03:01:53;;;;;;;9.73;3.00;;;7.40;1.00;;;;;;4381372;28;655779;-74
2023/05/28 03:04:42;;;;;;;9.37;2.80;;;7.40;1.00;;;;;;4381962;28;655212;-73
2023/05/28 03:07:29;;;;;;;4.40;2.10;;;7.40;1.00;;;;;;4414296;27;654653;-74
2023/05/28 03:10:16;;;;;;;4.77;1.87;;;7.40;1.00;;;;;;4378542;27;654783;-74
2023/05/28 03:13:03;;;;;;;9.15;2.20;;;7.40;1.00;;;;;;4384182;28;654758;-74
2023/05/28 03:15:50;;;;;;;4.13;2.07;;;7.40;1.00;;;;;;4367846;27;654978;-73
2023/05/28 03:18:38;;;;;;;5.10;2.20;;;7.50;1.00;;;;;;4417078;27;654931;-74
2023/05/28 03:21:27;;;;;;;5.80;2.30;;;7.50;1.00;;;;;;4366979;28;654179;-73
2023/05/28 03:24:14;;;;;;;5.83;2.03;;;7.60;1.00;;;;;;4377679;27;654709;-73
2023/05/28 03:27:02;;;;;;;5.87;2.13;;;7.60;1.00;;;;;;4370439;28;654707;-74
2023/05/28 03:29:49;;;;;;;6.90;2.33;;;7.70;1.00;;;;;;4385046;28;654923;-73
2023/05/28 03:32:36;;;;;;;4.17;1.80;;;7.80;1.00;;;;;;4357816;28;654532;-74
2023/05/28 03:35:23;;;;;;;10.17;2.43;;;7.80;1.00;;;;;;4403214;27;655630;-74
2023/05/28 03:38:12;;;;;;;10.30;2.03;;;7.90;1.00;;;;;;4384152;27;655589;-74
2023/05/28 03:40:59;;;;;;;9.30;1.73;;;8.00;1.00;;;;;;4383662;27;655360;-74
2023/05/28 03:43:46;;;;;;;4.03;1.90;;;8.10;1.00;;;;;;4362166;28;655033;-73
2023/05/28 03:46:34;;;;;;;6.60;2.00;;;8.10;1.00;;;;;;4381192;28;654724;-74
2023/05/28 03:49:21;;;;;;;6.90;2.20;;;8.20;1.00;;;;;;4393470;27;655173;-75
2023/05/28 03:52:08;;;;;;;5.60;1.70;;;8.30;1.00;;;;;;4422070;27;656098;-74
2023/05/28 03:54:57;;;;;;;6.67;1.90;;;8.40;1.00;;;;;;4365308;28;654479;-74
2023/05/28 03:57:44;;;;;;;7.93;1.80;;;8.50;1.00;;;;;;4393134;27;653909;-74
2023/05/28 04:00:31;;;;;;;4.40;1.90;;;8.60;1.00;;;;;;4365766;28;654149;-74
2023/05/28 04:03:19;;;;;;;10.17;1.90;;;8.70;1.00;;;;;;4393923;27;655533;-73
2023/05/28 04:06:06;;;;;;;7.93;1.80;;;8.80;1.00;;;;;;4361712;28;655200;-74
2023/05/28 04:08:54;;;;;;;2.30;1.30;;;8.80;1.00;;;;;;4383772;27;654954;-74
2023/05/28 04:11:42;;;;;;;7.00;1.80;;;9.00;1.00;;;;;;4370749;27;655197;-74
2023/05/28 04:14:29;;;;;;;6.50;1.97;;;9.10;1.00;;;;;;4378885;28;654784;-74
2023/05/28 04:17:17;;;;;;;4.57;2.03;;;9.20;1.00;;;;;;4364995;28;654937;-73
2023/05/28 04:20:06;;;;;;;6.27;1.93;;;9.30;1.00;;;;;;4382561;28;655522;-74
2023/05/28 04:22:53;;;;;;;3.60;1.70;;;9.40;1.00;;;;;;4381613;27;654624;-74
2023/05/28 04:25:41;;;;;;;6.17;2.00;;;9.50;1.00;;;;;;4371655;27;654443;-73
2023/05/28 04:28:31;;;;;;;6.43;2.10;;;9.60;1.00;;;;;;4387655;28;654898;-74
2023/05/28 04:31:19;;;;;;;3.77;1.67;;;9.70;1.00;;;;;;4366919;27;656131;-74
2023/05/28 04:34:06;;;;;;;3.20;1.67;;;9.80;1.00;;;;;;4384085;27;654810;-73
2023/05/28 04:36:53;;;;;;;9.23;2.23;;;9.90;1.00;;;;;;4391942;27;654798;-75
2023/05/28 04:39:40;;;;;;;8.93;1.87;;;10.00;1.00;;;;;;4366460;27;654677;-73
2023/05/28 04:42:28;;;;;;;6.40;2.10;;;10.10;1.00;;;;;;4423138;27;655687;-74
2023/05/28 04:45:17;;;;;;;9.87;1.63;;;10.20;1.00;;;;;;4371016;28;655653;-73
2023/05/28 04:48:05;;;;;;;6.07;2.13;;;10.30;1.00;;;;;;4379332;28;655695;-74
2023/05/28 04:50:52;;;;;;;11.13;2.30;;;10.40;1.00;;;;;;4350982;28;656635;-74
2023/05/28 04:53:39;;;;;;;4.33;1.70;;;10.50;1.00;;;;;;4383099;28;656107;-74
2023/05/28 04:56:26;;;;;;;5.20;1.90;;;10.60;1.00;;;;;;4370374;27;655554;-74
2023/05/28 04:59:13;;;;;;;5.73;2.07;;;10.70;1.00;;;;;;4404672;27;655898;-74
2023/05/28 05:02:02;;;;;;;6.47;2.20;;;10.80;1.00;;;;;;4362120;27;655492;-74
2023/05/28 05:04:50;;;;;;;4.70;2.03;;;10.90;1.00;;;;;;4385383;27;656568;-74
2023/05/28 05:07:37;;;;;;;3.20;1.77;;;11.00;1.00;;;;;;4356937;28;656311;-74
2023/05/28 05:10:25;;;;;;;7.67;1.93;;;11.10;1.00;;;;;;4381163;28;655578;-75
2023/05/28 05:13:12;;;;;;;5.50;1.77;;;11.20;99.90;;;;;;4363723;28;656187;-75
2023/05/28 05:15:59;;;;;;;11.90;2.17;;;11.30;1.00;;;;;;4376106;28;656366;-74
2023/05/28 05:18:48;;;;;;;3.27;1.80;;;11.40;1.00;;;;;;4374088;27;656810;-74
2023/05/28 05:21:35;;;;;;;6.82;2.00;;;11.60;1.00;;;;;;4366975;28;656213;-73
2023/05/28 05:24:23;;;;;;;3.10;1.77;;;11.60;1.00;;;;;;4381223;28;657718;-74
2023/05/28 05:27:10;;;;;;;11.63;2.40;;;11.80;99.90;;;;;;4393830;27;656686;-74
2023/05/28 05:29:57;;;;;;;5.57;1.70;;;11.80;1.00;;;;;;4377564;27;657896;-75
2023/05/28 05:32:45;;;;;;;2.83;1.60;;;12.00;1.00;;;;;;4397231;27;655214;-74
2023/05/28 05:35:34;;;;;;;5.07;1.90;;;12.10;1.00;;;;;;4376499;28;656700;-74
2023/05/28 05:38:21;;;;;;;8.00;1.97;;;12.30;1.00;;;;;;4390898;28;655597;-75
2023/05/28 05:41:08;;;;;;;9.97;1.70;;;12.30;99.90;;;;;;4382631;27;656608;-74
2023/05/28 05:43:55;;;;;;;6.63;1.70;;;12.50;99.90;;;;;;4355102;28;656597;-73
2023/05/28 05:46:43;;;;;;;5.23;1.80;;;12.60;99.90;;;;;;4391595;27;657727;-74
2023/05/28 05:49:30;;;;;;;4.70;1.57;;;12.80;99.90;;;;;;4390742;28;657054;-74
2023/05/28 05:52:19;;;;;;;9.07;1.70;;;12.90;99.90;;;;;;4376956;28;657434;-74
2023/05/28 05:55:07;;;;;;;7.10;1.80;;;13.10;99.90;;;;;;4365968;27;657450;-74
2023/05/28 05:57:56;;;;;;;5.40;1.87;;;13.10;99.90;;;;;;4377531;28;656976;-74
2023/05/28 06:00:44;;;;;;;3.30;1.80;;;13.20;99.90;;;;;;4357113;28;656851;-74
2023/05/28 06:03:31;;;;;;;6.87;1.83;;;13.30;99.90;;;;;;4386898;27;656614;-74
2023/05/28 06:06:18;;;;;;;3.00;1.80;;;13.40;99.90;;;;;;4383368;27;657051;-74
2023/05/28 06:09:08;;;;;;;12.27;2.00;;;13.60;99.90;;;;;;4362728;28;656390;-75
2023/05/28 06:11:55;;;;;;;4.33;1.70;;;13.80;99.90;;;;;;4364960;28;657754;-74
2023/05/28 06:14:43;;;;;;;3.57;1.53;;;13.90;99.90;;;;;;4380101;28;658585;-75
2023/05/28 06:17:31;;;;;;;5.67;1.97;;;14.10;99.90;;;;;;4371377;28;657068;-73
2023/05/28 06:20:19;;;;;;;7.63;1.80;;;14.20;99.90;;;;;;4381703;28;657304;-73
2023/05/28 06:23:06;;;;;;;6.73;1.90;;;14.40;99.90;;;;;;4294557;28;656824;-72
2023/05/28 06:25:55;;;;;;;6.32;2.15;;;14.40;99.90;;;;;;4252265;28;657144;-73
2023/05/28 06:28:42;;;;;;;4.67;1.90;;;14.60;99.50;;;;;;4261315;27;656705;-73
2023/05/28 06:31:29;;;;;;;6.13;2.07;;;14.70;99.00;;;;;;4320309;28;656659;-73
2023/05/28 06:34:16;;;;;;;5.30;1.63;;;14.70;96.90;;;;;;4392531;27;656590;-73
2023/05/28 06:37:04;;;;;;;8.20;1.83;;;14.80;97.30;;;;;;4380156;28;656319;-73
2023/05/28 06:39:51;;;;;;;8.38;1.90;;;15.10;97.30;;;;;;4362595;27;657474;-73
2023/05/28 06:42:40;;;;;;;4.27;1.80;;;15.20;97.30;;;;;;4381109;27;659532;-73
2023/05/28 06:45:27;;;;;;;4.23;1.90;;;15.40;97.40;;;;;;4371191;27;657306;-73
2023/05/28 06:48:15;;;;;;;6.03;2.13;;;15.50;95.70;;;;;;4381991;27;657654;-73
2023/05/28 06:51:02;;;;;;;6.17;1.80;;;15.50;94.40;;;;;;4381201;28;657068;-73
2023/05/28 06:53:50;;;;;;;2.87;1.70;;;15.70;94.00;;;;;;4375356;28;656611;-73
2023/05/28 06:56:38;;;;;;;4.27;1.97;;;15.80;93.90;;;;;;4437667;27;658035;-73
2023/05/28 06:59:27;;;;;;;3.75;1.95;;;15.90;91.00;;;;;;4399219;27;656918;-73
2023/05/28 07:02:14;;;;;;;4.90;1.87;;;16.00;88.10;;;;;;4405934;27;656775;-73
2023/05/28 07:05:04;;;;;;;6.53;2.03;;;16.10;89.70;;;;;;4362698;28;656574;-73
2023/05/28 07:07:51;;;;;;;7.13;1.87;;;16.20;92.50;;;;;;4364262;28;656499;-73
2023/05/28 07:10:38;;;;;;;6.77;1.97;;;16.40;89.10;;;;;;4382369;28;658076;-73
2023/05/28 07:13:26;;;;;;;4.93;2.00;;;16.40;83.30;;;;;;4369047;28;656706;-73
2023/05/28 07:16:14;;;;;;;4.47;1.63;;;16.50;80.90;;;;;;4405728;27;657917;-73
2023/05/28 07:19:02;;;;;;;9.27;2.00;;;16.60;90.50;;;;;;4384827;27;656586;-73
2023/05/28 07:21:49;;;;;;;8.77;1.87;;;16.80;86.40;;;;;;4426026;27;656991;-74
2023/05/28 07:24:36;;;;;;;9.73;2.23;;;17.00;85.20;;;;;;4365253;28;656508;-73
2023/05/28 07:27:23;;;;;;;3.63;1.77;;;17.30;87.60;;;;;;4393872;28;657186;-73
2023/05/28 07:30:11;;;;;;;5.23;1.57;;;17.40;81.20;;;;;;4373440;27;656267;-73
2023/05/28 07:33:00;;;;;;;4.07;1.80;;;17.30;74.30;;;;;;4388730;27;656905;-74
2023/05/28 07:35:47;;;;;;;4.07;1.77;;;17.40;76.60;;;;;;4361679;27;657384;-72
2023/05/28 07:38:34;;;;;;;5.57;1.47;;;17.50;77.90;;;;;;4383364;27;656640;-73
2023/05/28 07:41:22;;;;;;;5.17;1.67;;;17.60;72.10;;;;;;4360677;27;657230;-73
2023/05/28 07:44:09;;;;;;;8.37;1.70;;;17.60;66.10;;;;;;4402393;27;656553;-73
2023/05/28 07:46:56;;;;;;;6.43;1.73;;;17.60;69.10;;;;;;4363150;28;656707;-72
2023/05/28 07:49:45;;;;;;;6.18;1.65;;;17.50;67.70;;;;;;4385326;28;658151;-73
2023/05/28 07:52:32;;;;;;;7.50;1.50;;;17.80;64.60;;;;;;4364469;27;656565;-71
2023/05/28 07:55:19;;;;;;;6.63;1.67;;;17.80;64.80;;;;;;4389832;27;657082;-72
2023/05/28 07:58:06;;;;;;;5.60;1.77;;;17.70;62.70;;;;;;4368372;28;656775;-73
2023/05/28 08:00:53;;;;;;;9.70;1.50;;;17.60;65.70;;;;;;4387613;27;657344;-73
2023/05/28 08:03:40;;;;;;;8.53;1.80;;;17.80;66.50;;;;;;4360576;27;658411;-72
2023/05/28 08:06:29;;;;;;;5.33;1.53;;;18.20;70.80;;;;;;4432111;27;657569;-72
2023/05/28 08:09:17;;;;;;;11.53;1.60;;;18.50;67.00;;;;;;4364458;28;656369;-73
2023/05/28 08:12:05;;;;;;;8.00;1.55;;;18.40;64.20;;;;;;4385563;27;658379;-73
2023/05/28 08:14:52;;;;;;;8.83;1.77;;;18.60;61.60;;;;;;4366510;27;656602;-73
2023/05/28 08:17:40;;;;;;;5.67;1.67;;;18.60;61.00;;;;;;4370488;28;657126;-72
2023/05/28 08:20:27;;;;;;;23.57;1.73;;;18.70;58.40;;;;;;4383406;27;657208;-72
2023/05/28 08:23:16;;;;;;;3.07;1.30;;;18.60;57.80;;;;;;4385733;27;657391;-74
2023/05/28 08:26:03;;;;;;;4.23;1.67;;;18.70;60.40;;;;;;4362474;27;657620;-72
2023/05/28 08:28:50;;;;;;;6.70;1.80;;;19.00;60.70;;;;;;4369445;28;656786;-72
2023/05/28 08:31:38;;;;;;;6.97;1.60;;;19.20;60.00;;;;;;4378173;28;658422;-73
2023/05/28 08:34:25;;;;;;;12.37;1.50;;;19.50;63.70;;;;;;4372795;27;656511;-73
2023/05/28 08:37:13;;;;;;;5.80;1.53;;;19.30;59.80;;;;;;4397226;27;658523;-73
2023/05/28 08:40:03;;;;;;;7.53;1.63;;;19.40;55.00;;;;;;4376419;28;657461;-73
2023/05/28 08:42:50;;;;;;;3.27;1.40;;;19.60;56.10;;;;;;4359171;28;658521;-73
2023/05/28 08:45:38;;;;;;;7.50;1.80;;;19.70;54.90;;;;;;4397132;27;656638;-74
2023/05/28 08:48:25;;;;;;;1.57;1.30;;;19.80;54.50;;;;;;4361913;28;657092;-72
2023/05/28 08:51:12;;;;;;;10.13;2.00;;;19.60;51.30;;;;;;4401353;27;657893;-71
2023/05/28 08:54:00;;;;;;;4.63;1.40;;;19.60;52.40;;;;;;4375194;27;657844;-74
2023/05/28 08:56:49;;;;;;;15.53;1.80;;;19.80;52.00;;;;;;4365047;27;656919;-74
2023/05/28 08:59:36;;;;;;;4.43;1.67;;;20.00;53.40;;;;;;4356992;28;657598;-74
2023/05/28 09:02:24;;;;;;;6.67;1.70;;;20.30;52.10;;;;;;4381863;28;657967;-73
2023/05/28 09:05:12;;;;;;;4.63;1.23;;;20.50;53.60;;;;;;4371427;28;656851;-74
2023/05/28 09:07:59;;;;;;;4.30;1.30;;;20.60;52.20;;;;;;4396074;28;656996;-73
2023/05/28 09:10:46;;;;;;;4.47;1.90;;;20.70;52.40;;;;;;4373506;28;656716;-73
2023/05/28 09:13:35;;;;;;;5.97;1.70;;;20.90;52.30;;;;;;4370030;28;657901;-72
2023/05/28 09:16:23;;;;;;;6.40;1.40;;;21.00;48.30;;;;;;4355283;28;658284;-73
2023/05/28 09:19:10;;;;;;;6.23;1.67;;;20.80;47.80;;;;;;4372797;28;656747;-72
2023/05/28 09:21:59;;;;;;;8.70;1.70;;;20.60;47.40;;;;;;4386630;28;658108;-73
2023/05/28 09:24:49;;;;;;;8.23;1.50;;;20.80;51.10;;;;;;4361716;27;656281;-74
2023/05/28 09:27:37;;;;;;;11.43;1.70;;;21.20;52.30;;;;;;4357205;28;656829;-75
2023/05/28 09:30:29;;;;;;;4.70;1.87;;;21.20;47.60;;;;;;4359294;27;657676;-74
2023/05/28 09:33:17;;;;;;;2.37;1.43;;;21.30;49.90;;;;;;4358876;28;657785;-72
2023/05/28 09:36:05;;;;;;;3.57;1.60;;;21.40;48.40;;;;;;4380776;28;656738;-74
2023/05/28 09:38:52;;;;;;;9.40;1.70;;;21.60;50.30;;;;;;4369455;28;657396;-74
2023/05/28 09:41:43;;;;;;;2.60;1.60;;;21.60;49.80;;;;;;4379532;28;656428;-73
2023/05/28 09:44:31;;;;;;;6.37;1.50;;;21.80;51.20;;;;;;4334405;28;657618;-74
2023/05/28 09:47:21;;;;;;;4.27;1.60;;;22.00;48.20;;;;;;4379593;28;657254;-73
2023/05/28 09:50:09;;;;;;;4.80;1.60;;;21.90;47.20;;;;;;4370497;27;656772;-73
2023/05/28 09:52:57;;;;;;;6.97;1.70;;;22.10;48.70;;;;;;4354806;28;656214;-74
2023/05/28 09:55:45;;;;;;;4.57;1.43;;;22.30;48.00;;;;;;4386609;27;656708;-74
2023/05/28 09:58:34;;;;;;;5.70;1.73;;;22.20;46.10;;;;;;4353516;28;656879;-75
2023/05/28 10:01:21;;;;;;;11.60;1.70;;;22.20;46.90;;;;;;4360571;28;656887;-75
2023/05/28 10:04:10;;;;;;;5.83;1.80;;;21.80;48.20;;;;;;4382107;28;659524;-75
2023/05/28 10:06:57;;;;;;;4.83;1.60;;;22.20;48.60;;;;;;4358105;28;660070;-75
2023/05/28 10:09:44;;;;;;;3.33;1.50;;;22.60;48.70;;;;;;4387260;27;657041;-72
2023/05/28 10:12:31;;;;;;;5.93;1.57;;;22.70;48.00;;;;;;4374123;28;656709;-71
2023/05/28 10:15:19;;;;;;;6.33;1.63;;;22.80;44.40;;;;;;4386837;28;656493;-76
2023/05/28 10:18:07;;;;;;;6.90;1.73;;;23.00;46.50;;;;;;4372190;27;657522;-77
2023/05/28 10:20:55;;;;;;;6.27;1.60;;;23.00;45.50;;;;;;4387195;28;656751;-77
2023/05/28 10:23:42;;;;;;;7.73;1.60;;;23.10;47.20;;;;;;4359435;28;656817;-78
2023/05/28 10:26:30;;;;;;;4.90;1.60;;;23.10;46.60;;;;;;4381549;28;656711;-75
2023/05/28 10:29:17;;;;;;;3.23;1.60;;;23.40;45.90;;;;;;4384845;28;656858;-74
2023/05/28 10:32:06;;;;;;;6.13;1.70;;;23.00;46.80;;;;;;4376958;28;657019;-76
2023/05/28 10:35:01;;;;;;;9.93;1.73;;;23.00;44.50;;;;;;4409783;27;656431;-76
2023/05/28 10:37:50;;;;;;;3.97;1.33;;;22.90;43.00;;;;;;4363677;27;656697;-77
2023/05/28 10:40:39;;;;;;;10.87;1.70;;;22.60;42.60;;;;;;4373706;27;657300;-75
2023/05/28 10:43:42;;;;;;;6.47;1.60;;;22.70;44.70;;;;;;4360764;27;657714;-77
2023/05/28 10:46:36;;;;;;;4.87;1.40;;;23.00;48.10;;;;;;4361261;28;657110;-75
2023/05/28 10:49:25;;;;;;;3.77;1.50;;;22.70;44.30;;;;;;4354448;27;656810;-76
2023/05/28 10:52:18;;;;;;;8.97;1.57;;;22.90;45.70;;;;;;4367016;28;658840;-77
2023/05/28 10:55:08;;;;;;;4.00;1.80;;;23.10;44.60;;;;;;4357232;28;657138;-77
2023/05/28 10:57:56;;;;;;;9.57;1.47;;;23.50;43.30;;;;;;4376381;28;656541;-75
2023/05/28 11:00:44;;;;;;;5.77;1.70;;;23.60;45.50;;;;;;4398443;27;657829;-77
2023/05/28 11:03:43;;;;;;;3.35;1.52;;;23.80;47.30;;;;;;4363414;27;656794;-81
2023/05/28 11:06:31;;;;;;;4.57;1.87;;;24.10;44.70;;;;;;4370876;27;656554;-74
2023/05/28 11:09:18;;;;;;;5.28;1.50;;;24.20;45.50;;;;;;4401973;27;656655;-74
2023/05/28 11:12:08;;;;;;;4.00;1.48;;;24.10;42.80;;;;;;4387056;27;656738;-73
2023/05/28 11:14:55;;;;;;;9.55;1.70;;;24.00;41.10;;;;;;4377820;27;657021;-73
2023/05/28 11:17:43;;;;;;;5.78;1.77;;;23.90;43.00;;;;;;4405318;27;657150;-75
2023/05/28 11:20:30;;;;;;;6.57;2.20;;;24.00;42.80;;;;;;4375958;27;657449;-73
2023/05/28 11:23:17;;;;;;;7.28;1.70;;;24.10;45.40;;;;;;4394741;27;656950;-75
2023/05/28 11:26:06;;;;;;;5.18;1.90;;;24.20;43.80;;;;;;4381883;27;656352;-74
2023/05/28 11:28:54;;;;;;;6.15;2.00;;;24.20;43.10;;;;;;4398614;28;656961;-79
2023/05/28 11:31:41;;;;;;;3.33;1.73;;;24.30;45.20;;;;;;4361601;28;656328;-79
2023/05/28 11:34:29;;;;;;;6.30;1.80;;;24.10;42.00;;;;;;4407853;27;657225;-76
2023/05/28 11:37:16;;;;;;;13.35;1.90;;;24.40;44.90;;;;;;4359719;28;656854;-75
2023/05/28 11:40:07;;;;;;;4.88;2.05;;;24.40;41.80;;;;;;4380395;28;659352;-74
2023/05/28 11:42:59;;;;;;;6.00;1.88;;;24.30;43.40;;;;;;4356430;28;656799;-75
2023/05/28 11:45:49;;;;;;;7.35;1.73;;;24.40;45.30;;;;;;4364760;27;657054;-75
2023/05/28 11:48:38;;;;;;;10.40;1.80;;;24.50;44.50;;;;;;4363048;28;657090;-75
2023/05/28 11:51:25;;;;;;;39.90;21.48;;;24.80;43.70;;;;;;4397100;27;657241;-73
2023/05/28 11:54:12;;;;;;;60.10;29.98;;;24.80;40.90;;;;;;4400287;27;659423;-75
2023/05/28 11:57:03;;;;;;;10.10;4.50;;;24.80;43.50;;;;;;4378750;28;658982;-72
2023/05/28 11:59:59;;;;;;;32.67;20.08;;;24.60;41.10;;;;;;4372412;27;659286;-74
2023/05/28 12:02:49;;;;;;;29.30;16.38;;;24.70;43.00;;;;;;4359242;27;660050;-74
2023/05/28 12:05:39;;;;;;;16.38;6.20;;;24.40;41.20;;;;;;4371820;28;658451;-74
2023/05/28 12:08:27;;;;;;;6.32;3.58;;;24.40;43.70;;;;;;4372325;28;658493;-78
2023/05/28 12:11:14;;;;;;;7.28;3.95;;;24.60;43.30;;;;;;4397435;27;656883;-78
2023/05/28 12:14:10;;;;;;;9.07;3.95;;;24.60;43.80;;;;;;4369085;27;656670;-77
2023/05/28 12:17:05;;;;;;;7.55;4.35;;;24.60;44.20;;;;;;4349237;27;657585;-79
2023/05/28 12:19:54;;;;;;;7.32;2.55;;;24.90;43.60;;;;;;4366915;27;656560;-76
2023/05/28 12:22:41;;;;;;;10.35;2.00;;;25.10;46.20;;;;;;4377583;27;657159;-75
2023/05/28 12:25:28;;;;;;;6.70;4.05;;;25.30;41.50;;;;;;4345877;27;658121;-75
2023/05/28 12:28:16;;;;;;;15.35;8.60;;;25.40;42.00;;;;;;4184889;28;656688;-75
2023/05/28 12:31:04;;;;;;;247.77;187.43;;;25.60;40.50;;;;;;4271191;28;657426;-74
2023/05/28 12:33:51;;;;;;;69.93;40.70;;;25.10;41.40;;;;;;4353048;27;660749;-76
2023/05/28 12:36:40;;;;;;;16.38;5.90;;;25.20;45.80;;;;;;4390958;27;659955;-75
2023/05/28 12:39:27;;;;;;;8.50;2.78;;;24.70;38.90;;;;;;4358125;28;657737;-74
2023/05/28 12:42:14;;;;;;;6.25;1.77;;;24.70;42.60;;;;;;4418374;27;656399;-75
2023/05/28 12:45:02;;;;;;;13.40;8.93;;;25.30;40.70;;;;;;4359046;28;656496;-75
2023/05/28 12:47:49;;;;;;;29.85;10.30;;;25.50;38.60;;;;;;4402128;27;657860;-76
2023/05/28 12:50:36;;;;;;;31.27;23.23;;;25.80;42.50;;;;;;4374662;27;658691;-76
2023/05/28 12:53:25;;;;;;;18.92;10.93;;;25.50;40.20;;;;;;4379070;28;659446;-76
2023/05/28 12:56:13;;;;;;;7.53;3.30;;;25.50;42.60;;;;;;4353800;28;660780;-79
2023/05/28 12:59:00;;;;;;;7.90;3.35;;;25.90;42.20;;;;;;4358184;28;656495;-75
2023/05/28 13:01:47;;;;;;;5.47;2.40;;;26.10;42.70;;;;;;4381492;28;657023;-77
2023/05/28 13:04:35;;;;;;;7.07;2.22;;;26.00;39.00;;;;;;4373628;28;656905;-76
2023/05/28 13:07:23;;;;;;;3.25;1.80;;;25.80;39.80;;;;;;4373275;28;658733;-76
2023/05/28 13:10:12;;;;;;;6.60;2.30;;;25.50;39.50;;;;;;4369756;28;656955;-75
2023/05/28 13:12:59;;;;;;;10.43;5.47;;;25.70;42.40;;;;;;4378400;28;657080;-77
2023/05/28 13:15:46;;;;;;;8.40;3.25;;;26.00;40.80;;;;;;4366338;28;659063;-78
2023/05/28 13:18:34;;;;;;;39.15;24.90;;;25.60;40.90;;;;;;4400988;27;657135;-77
2023/05/28 13:21:21;;;;;;;78.22;54.80;;;25.40;42.30;;;;;;4374186;27;658866;-75
2023/05/28 13:24:08;;;;;;;12.10;2.55;;;25.30;42.20;;;;;;4375147;28;659670;-77
2023/05/28 13:26:57;;;;;;;18.20;7.63;;;25.40;40.30;;;;;;4356143;27;657397;-76
2023/05/28 13:29:44;;;;;;;16.08;8.35;;;25.70;43.30;;;;;;4405908;27;657302;-76
2023/05/28 13:32:31;;;;;;;7.65;1.85;;;25.50;40.50;;;;;;4358220;28;658449;-78
2023/05/28 13:35:20;;;;;;;7.70;2.10;;;25.60;38.10;;;;;;4383139;28;656711;-78
2023/05/28 13:38:07;;;;;;;7.03;2.10;;;25.40;40.60;;;;;;4370386;27;656974;-77
2023/05/28 13:40:55;;;;;;;4.97;1.80;;;25.80;39.70;;;;;;4377628;28;656736;-77
2023/05/28 13:43:44;;;;;;;3.97;1.60;;;25.80;40.10;;;;;;4353951;28;657919;-77
2023/05/28 13:46:31;;;;;;;4.57;1.55;;;25.90;38.70;;;;;;4361205;28;656836;-77
2023/05/28 13:49:18;;;;;;;4.85;1.90;;;26.00;39.50;;;;;;4379668;28;656389;-80
2023/05/28 13:52:06;;;;;;;6.40;1.77;;;26.40;38.80;;;;;;4355431;28;656574;-75
2023/05/28 13:54:53;;;;;;;3.38;1.52;;;26.70;39.10;;;;;;4387224;27;657114;-79
2023/05/28 13:57:40;;;;;;;6.90;1.60;;;26.80;37.50;;;;;;4371376;27;656650;-74
2023/05/28 14:00:29;;;;;;;4.75;2.05;;;26.40;37.70;;;;;;4397003;28;656698;-77
2023/05/28 14:03:16;;;;;;;3.97;1.55;;;26.40;41.00;;;;;;4413115;27;656553;-73
2023/05/28 14:06:04;;;;;;;3.80;1.92;;;26.20;38.20;;;;;;4389054;28;657368;-78
2023/05/28 14:08:51;;;;;;;2.95;1.63;;;26.10;38.70;;;;;;4388312;27;656610;-71
2023/05/28 14:11:38;;;;;;;7.95;1.90;;;25.90;38.80;;;;;;4396613;28;658100;-72
2023/05/28 14:14:26;;;;;;;2.50;1.50;;;26.30;38.50;;;;;;4357508;28;656528;-75
2023/05/28 14:17:14;;;;;;;4.53;2.03;;;26.20;39.30;;;;;;4385144;27;657251;-75
2023/05/28 14:20:04;;;;;;;2.47;1.90;;;26.40;39.80;;;;;;4353385;28;657309;-74
2023/05/28 14:22:51;;;;;;;5.35;1.80;;;26.90;37.50;;;;;;4400874;27;656695;-75
2023/05/28 14:25:38;;;;;;;4.22;1.75;;;27.00;38.90;;;;;;4376729;28;656528;-74
2023/05/28 14:28:26;;;;;;;8.45;1.83;;;27.30;37.70;;;;;;4357986;28;656295;-73